sensor_id;sensor_type;location;lat;lon;timestamp;pressure;altitude;pressure_sealevel;temperature;humidity
48156;BME280;35568;48.104;11.782;2023-01-28T00:01:27;95665.87;;;0.92;48.03
48156;BME280;35568;48.104;11.782;2023-01-28T00:03:54;95662.04;;;1.00;48.28
48156;BME280;35568;48.104;11.782;2023-01-28T00:06:21;95661.55;;;0.88;48.24
48156;BME280;35568;48.104;11.782;2023-01-28T00:08:48;95664.53;;;0.71;48.38
48156;BME280;35568;48.104;11.782;2023-01-28T00:11:14;95666.72;;;0.72;48.50
48156;BME280;35568;48.104;11.782;2023-01-28T00:13:42;95663.59;;;0.60;48.22
48156;BME280;35568;48.104;11.782;2023-01-28T00:16:09;95664.83;;;1.09;48.49
48156;BME280;35568;48.104;11.782;2023-01-28T00:18:36;95664.90;;;0.68;48.83
48156;BME280;35568;48.104;11.782;2023-01-28T00:21:05;95666.26;;;0.94;48.55
48156;BME280;35568;48.104;11.782;2023-01-28T00:23:34;95669.21;;;0.89;48.41
48156;BME280;35568;48.104;11.782;2023-01-28T00:26:03;95667.60;;;0.73;48.45
48156;BME280;35568;48.104;11.782;2023-01-28T00:28:30;95671.10;;;1.02;48.49
48156;BME280;35568;48.104;11.782;2023-01-28T00:30:57;95669.56;;;1.04;48.36
48156;BME280;35568;48.104;11.782;2023-01-28T00:33:24;95668.19;;;0.83;48.21
48156;BME280;35568;48.104;11.782;2023-01-28T00:35:57;95664.57;;;0.80;47.99
48156;BME280;35568;48.104;11.782;2023-01-28T00:38:24;95664.91;;;0.90;48.06
48156;BME280;35568;48.104;11.782;2023-01-28T00:40:51;95665.90;;;0.63;48.49
48156;BME280;35568;48.104;11.782;2023-01-28T00:43:19;95668.55;;;0.68;48.39
48156;BME280;35568;48.104;11.782;2023-01-28T00:45:46;95666.43;;;0.62;48.65
48156;BME280;35568;48.104;11.782;2023-01-28T00:48:13;95666.42;;;0.69;48.65
48156;BME280;35568;48.104;11.782;2023-01-28T00:50:40;95665.77;;;0.69;48.71
48156;BME280;35568;48.104;11.782;2023-01-28T00:53:06;95661.81;;;0.84;48.75
48156;BME280;35568;48.104;11.782;2023-01-28T00:55:34;95663.78;;;0.73;48.54
48156;BME280;35568;48.104;11.782;2023-01-28T00:58:01;95664.29;;;0.74;48.51
48156;BME280;35568;48.104;11.782;2023-01-28T01:00:27;95665.46;;;0.74;48.71
48156;BME280;35568;48.104;11.782;2023-01-28T01:02:54;95668.10;;;0.94;48.66
48156;BME280;35568;48.104;11.782;2023-01-28T01:05:20;95670.10;;;0.65;48.51
48156;BME280;35568;48.104;11.782;2023-01-28T01:07:47;95671.38;;;1.03;48.93
48156;BME280;35568;48.104;11.782;2023-01-28T01:10:16;95670.30;;;0.82;48.47
48156;BME280;35568;48.104;11.782;2023-01-28T01:12:45;95671.30;;;1.25;48.66
48156;BME280;35568;48.104;11.782;2023-01-28T01:15:12;95670.99;;;0.88;48.44
48156;BME280;35568;48.104;11.782;2023-01-28T01:17:41;95671.58;;;0.72;48.56
48156;BME280;35568;48.104;11.782;2023-01-28T01:20:13;95672.02;;;0.96;48.65
48156;BME280;35568;48.104;11.782;2023-01-28T01:22:39;95668.99;;;0.94;48.11
48156;BME280;35568;48.104;11.782;2023-01-28T01:25:11;95666.22;;;0.94;48.35
48156;BME280;35568;48.104;11.782;2023-01-28T01:27:39;95670.63;;;0.80;48.42
48156;BME280;35568;48.104;11.782;2023-01-28T01:30:07;95674.09;;;0.66;48.31
48156;BME280;35568;48.104;11.782;2023-01-28T01:32:35;95672.21;;;0.79;48.25
48156;BME280;35568;48.104;11.782;2023-01-28T01:35:03;95673.73;;;0.87;48.05
48156;BME280;35568;48.104;11.782;2023-01-28T01:37:32;95677.74;;;1.25;48.17
48156;BME280;35568;48.104;11.782;2023-01-28T01:39:59;95680.25;;;0.87;48.34
48156;BME280;35568;48.104;11.782;2023-01-28T01:42:27;95683.93;;;0.89;48.06
48156;BME280;35568;48.104;11.782;2023-01-28T01:44:58;95681.34;;;0.44;48.61
48156;BME280;35568;48.104;11.782;2023-01-28T01:47:31;95686.78;;;0.79;48.49
48156;BME280;35568;48.104;11.782;2023-01-28T01:50:03;95687.70;;;0.67;48.55
48156;BME280;35568;48.104;11.782;2023-01-28T01:52:34;95693.71;;;0.84;48.41
48156;BME280;35568;48.104;11.782;2023-01-28T01:55:07;95693.94;;;1.03;47.88
48156;BME280;35568;48.104;11.782;2023-01-28T01:57:35;95690.57;;;1.20;47.90
48156;BME280;35568;48.104;11.782;2023-01-28T02:00:06;95691.23;;;0.95;48.05
48156;BME280;35568;48.104;11.782;2023-01-28T02:02:36;95692.51;;;1.11;47.64
48156;BME280;35568;48.104;11.782;2023-01-28T02:05:06;95694.46;;;1.04;47.59
48156;BME280;35568;48.104;11.782;2023-01-28T02:07:34;95695.18;;;0.81;47.70
48156;BME280;35568;48.104;11.782;2023-01-28T02:10:02;95697.41;;;0.92;48.07
48156;BME280;35568;48.104;11.782;2023-01-28T02:12:32;95700.08;;;1.28;47.60
48156;BME280;35568;48.104;11.782;2023-01-28T02:15:02;95700.33;;;1.02;47.48
48156;BME280;35568;48.104;11.782;2023-01-28T02:17:30;95700.75;;;1.24;47.53
48156;BME280;35568;48.104;11.782;2023-01-28T02:19:59;95700.44;;;1.05;47.50
48156;BME280;35568;48.104;11.782;2023-01-28T02:22:47;95703.37;;;1.12;47.42
48156;BME280;35568;48.104;11.782;2023-01-28T02:25:46;95703.05;;;1.08;47.65
48156;BME280;35568;48.104;11.782;2023-01-28T02:28:24;95700.96;;;0.94;47.62
48156;BME280;35568;48.104;11.782;2023-01-28T02:30:58;95698.99;;;0.98;48.01
48156;BME280;35568;48.104;11.782;2023-01-28T02:33:31;95700.98;;;1.18;47.64
48156;BME280;35568;48.104;11.782;2023-01-28T02:36:04;95702.11;;;1.05;47.95
48156;BME280;35568;48.104;11.782;2023-01-28T02:38:38;95700.76;;;0.72;47.86
48156;BME280;35568;48.104;11.782;2023-01-28T02:41:11;95701.93;;;0.66;47.94
48156;BME280;35568;48.104;11.782;2023-01-28T02:43:41;95704.17;;;0.93;48.03
48156;BME280;35568;48.104;11.782;2023-01-28T02:46:16;95704.66;;;0.96;47.98
48156;BME280;35568;48.104;11.782;2023-01-28T02:48:43;95709.91;;;0.84;47.82
48156;BME280;35568;48.104;11.782;2023-01-28T02:51:19;95708.06;;;0.89;47.80
48156;BME280;35568;48.104;11.782;2023-01-28T02:53:53;95708.34;;;1.30;47.78
48156;BME280;35568;48.104;11.782;2023-01-28T02:56:27;95708.32;;;1.04;47.83
48156;BME280;35568;48.104;11.782;2023-01-28T02:59:00;95703.35;;;1.23;47.64
48156;BME280;35568;48.104;11.782;2023-01-28T03:01:34;95706.42;;;1.11;47.72
48156;BME280;35568;48.104;11.782;2023-01-28T03:04:08;95708.77;;;1.30;47.15
48156;BME280;35568;48.104;11.782;2023-01-28T03:06:42;95709.97;;;1.21;47.32
48156;BME280;35568;48.104;11.782;2023-01-28T03:09:11;95713.83;;;1.45;47.26
48156;BME280;35568;48.104;11.782;2023-01-28T03:11:42;95711.67;;;1.20;47.26
48156;BME280;35568;48.104;11.782;2023-01-28T03:14:10;95713.95;;;1.46;47.47
48156;BME280;35568;48.104;11.782;2023-01-28T03:16:38;95717.73;;;1.21;47.42
48156;BME280;35568;48.104;11.782;2023-01-28T03:19:05;95721.18;;;1.16;47.44
48156;BME280;35568;48.104;11.782;2023-01-28T03:21:33;95722.22;;;1.22;47.36
48156;BME280;35568;48.104;11.782;2023-01-28T03:24:05;95725.06;;;1.27;47.19
48156;BME280;35568;48.104;11.782;2023-01-28T03:26:39;95723.99;;;1.34;47.40
48156;BME280;35568;48.104;11.782;2023-01-28T03:29:09;95725.05;;;1.25;47.20
48156;BME280;35568;48.104;11.782;2023-01-28T03:31:39;95723.37;;;1.08;47.30
48156;BME280;35568;48.104;11.782;2023-01-28T03:34:07;95723.95;;;1.12;47.63
48156;BME280;35568;48.104;11.782;2023-01-28T03:36:36;95725.03;;;1.17;47.68
48156;BME280;35568;48.104;11.782;2023-01-28T03:39:03;95725.54;;;1.12;47.62
48156;BME280;35568;48.104;11.782;2023-01-28T03:41:30;95728.70;;;0.83;47.72
48156;BME280;35568;48.104;11.782;2023-01-28T03:43:57;95725.94;;;0.94;48.02
48156;BME280;35568;48.104;11.782;2023-01-28T03:46:24;95727.08;;;0.94;47.74
48156;BME280;35568;48.104;11.782;2023-01-28T03:48:51;95726.37;;;1.02;48.08
48156;BME280;35568;48.104;11.782;2023-01-28T03:51:18;95725.46;;;1.16;47.89
48156;BME280;35568;48.104;11.782;2023-01-28T03:53:45;95725.67;;;1.07;47.52
48156;BME280;35568;48.104;11.782;2023-01-28T03:56:12;95726.21;;;1.12;47.71
48156;BME280;35568;48.104;11.782;2023-01-28T03:58:39;95728.95;;;1.16;47.33
48156;BME280;35568;48.104;11.782;2023-01-28T04:03:01;95730.76;;;1.22;47.14
48156;BME280;35568;48.104;11.782;2023-01-28T04:05:27;95730.56;;;1.15;47.35
48156;BME280;35568;48.104;11.782;2023-01-28T04:07:54;95729.91;;;1.35;47.13
48156;BME280;35568;48.104;11.782;2023-01-28T04:10:21;95731.07;;;1.02;47.04
48156;BME280;35568;48.104;11.782;2023-01-28T04:12:49;95733.71;;;1.05;47.72
48156;BME280;35568;48.104;11.782;2023-01-28T04:15:16;95739.04;;;1.16;47.38
48156;BME280;35568;48.104;11.782;2023-01-28T04:17:44;95737.69;;;0.91;47.42
48156;BME280;35568;48.104;11.782;2023-01-28T04:20:12;95737.78;;;0.94;47.59
48156;BME280;35568;48.104;11.782;2023-01-28T04:22:40;95740.83;;;1.02;47.41
48156;BME280;35568;48.104;11.782;2023-01-28T04:25:08;95742.45;;;1.02;47.25
48156;BME280;35568;48.104;11.782;2023-01-28T04:27:34;95746.59;;;0.99;47.19
48156;BME280;35568;48.104;11.782;2023-01-28T04:30:02;95748.03;;;1.06;47.42
48156;BME280;35568;48.104;11.782;2023-01-28T04:32:29;95748.75;;;0.91;47.78
48156;BME280;35568;48.104;11.782;2023-01-28T04:34:56;95751.39;;;1.01;47.66
48156;BME280;35568;48.104;11.782;2023-01-28T04:37:23;95757.34;;;0.66;47.60
48156;BME280;35568;48.104;11.782;2023-01-28T04:39:50;95760.29;;;1.04;47.69
48156;BME280;35568;48.104;11.782;2023-01-28T04:42:18;95764.39;;;0.78;47.88
48156;BME280;35568;48.104;11.782;2023-01-28T04:44:45;95764.86;;;1.10;47.57
48156;BME280;35568;48.104;11.782;2023-01-28T04:47:12;95764.32;;;0.98;47.33
48156;BME280;35568;48.104;11.782;2023-01-28T04:49:39;95770.37;;;0.71;47.71
48156;BME280;35568;48.104;11.782;2023-01-28T04:52:06;95766.83;;;0.94;47.85
48156;BME280;35568;48.104;11.782;2023-01-28T04:54:33;95767.97;;;0.80;47.98
48156;BME280;35568;48.104;11.782;2023-01-28T04:57:00;95770.15;;;0.59;47.85
48156;BME280;35568;48.104;11.782;2023-01-28T04:59:27;95770.92;;;0.87;47.79
48156;BME280;35568;48.104;11.782;2023-01-28T05:01:54;95775.35;;;0.86;48.35
48156;BME280;35568;48.104;11.782;2023-01-28T05:04:21;95777.76;;;0.70;48.05
48156;BME280;35568;48.104;11.782;2023-01-28T05:06:48;95781.46;;;0.46;48.46
48156;BME280;35568;48.104;11.782;2023-01-28T05:09:15;95781.05;;;0.36;48.17
48156;BME280;35568;48.104;11.782;2023-01-28T05:11:42;95780.84;;;0.55;48.30
48156;BME280;35568;48.104;11.782;2023-01-28T05:14:09;95782.72;;;0.81;48.19
48156;BME280;35568;48.104;11.782;2023-01-28T05:16:37;95783.59;;;0.62;48.09
48156;BME280;35568;48.104;11.782;2023-01-28T05:19:04;95782.83;;;0.95;47.54
48156;BME280;35568;48.104;11.782;2023-01-28T05:21:31;95780.01;;;0.81;47.90
48156;BME280;35568;48.104;11.782;2023-01-28T05:23:58;95779.22;;;0.61;47.85
48156;BME280;35568;48.104;11.782;2023-01-28T05:26:25;95781.22;;;0.71;48.15
48156;BME280;35568;48.104;11.782;2023-01-28T05:28:52;95787.28;;;0.71;48.21
48156;BME280;35568;48.104;11.782;2023-01-28T05:31:19;95793.72;;;1.02;47.87
48156;BME280;35568;48.104;11.782;2023-01-28T05:33:46;95794.32;;;0.75;48.14
48156;BME280;35568;48.104;11.782;2023-01-28T05:36:12;95796.55;;;0.98;48.25
48156;BME280;35568;48.104;11.782;2023-01-28T05:38:39;95800.63;;;0.62;47.83
48156;BME280;35568;48.104;11.782;2023-01-28T05:41:06;95801.97;;;0.69;47.97
48156;BME280;35568;48.104;11.782;2023-01-28T05:43:34;95802.81;;;0.54;47.87
48156;BME280;35568;48.104;11.782;2023-01-28T05:46:01;95804.33;;;0.63;47.98
48156;BME280;35568;48.104;11.782;2023-01-28T05:48:28;95805.07;;;0.66;47.91
48156;BME280;35568;48.104;11.782;2023-01-28T05:50:55;95808.64;;;0.86;48.49
48156;BME280;35568;48.104;11.782;2023-01-28T05:55:00;95809.74;;;1.53;47.88
48156;BME280;35568;48.104;11.782;2023-01-28T05:57:27;95810.62;;;1.03;48.16
48156;BME280;35568;48.104;11.782;2023-01-28T05:59:54;95812.43;;;1.21;47.83
48156;BME280;35568;48.104;11.782;2023-01-28T06:02:21;95815.18;;;0.92;47.75
48156;BME280;35568;48.104;11.782;2023-01-28T06:04:48;95817.64;;;0.95;47.30
48156;BME280;35568;48.104;11.782;2023-01-28T06:07:15;95816.18;;;0.80;47.50
48156;BME280;35568;48.104;11.782;2023-01-28T06:09:42;95816.72;;;0.92;47.82
48156;BME280;35568;48.104;11.782;2023-01-28T06:12:09;95821.82;;;1.14;47.34
48156;BME280;35568;48.104;11.782;2023-01-28T06:14:36;95822.94;;;1.20;46.87
48156;BME280;35568;48.104;11.782;2023-01-28T06:17:03;95823.67;;;0.73;47.42
48156;BME280;35568;48.104;11.782;2023-01-28T06:19:30;95827.90;;;0.80;47.34
48156;BME280;35568;48.104;11.782;2023-01-28T06:21:57;95826.15;;;0.75;47.79
48156;BME280;35568;48.104;11.782;2023-01-28T06:24:24;95830.80;;;1.11;47.57
48156;BME280;35568;48.104;11.782;2023-01-28T06:26:51;95834.94;;;0.94;47.45
48156;BME280;35568;48.104;11.782;2023-01-28T06:29:18;95836.89;;;0.80;47.68
48156;BME280;35568;48.104;11.782;2023-01-28T06:31:45;95839.80;;;1.02;47.62
48156;BME280;35568;48.104;11.782;2023-01-28T06:34:13;95840.89;;;1.05;47.74
48156;BME280;35568;48.104;11.782;2023-01-28T06:36:41;95845.40;;;0.90;47.96
48156;BME280;35568;48.104;11.782;2023-01-28T06:39:07;95841.05;;;1.07;47.50
48156;BME280;35568;48.104;11.782;2023-01-28T06:41:34;95844.86;;;0.97;47.59
48156;BME280;35568;48.104;11.782;2023-01-28T06:44:01;95848.34;;;1.05;47.24
48156;BME280;35568;48.104;11.782;2023-01-28T06:46:27;95849.79;;;0.97;47.28
48156;BME280;35568;48.104;11.782;2023-01-28T06:48:54;95850.49;;;0.98;47.67
48156;BME280;35568;48.104;11.782;2023-01-28T06:51:21;95852.08;;;1.01;47.39
48156;BME280;35568;48.104;11.782;2023-01-28T06:53:49;95852.18;;;1.03;47.48
48156;BME280;35568;48.104;11.782;2023-01-28T06:56:15;95859.28;;;0.65;47.43
48156;BME280;35568;48.104;11.782;2023-01-28T06:58:42;95856.50;;;1.09;47.61
48156;BME280;35568;48.104;11.782;2023-01-28T07:01:09;95858.05;;;0.92;47.91
48156;BME280;35568;48.104;11.782;2023-01-28T07:03:37;95859.88;;;0.91;47.96
48156;BME280;35568;48.104;11.782;2023-01-28T07:06:04;95862.10;;;0.93;47.94
48156;BME280;35568;48.104;11.782;2023-01-28T07:08:30;95866.63;;;0.98;47.75
48156;BME280;35568;48.104;11.782;2023-01-28T07:10:58;95872.26;;;0.79;47.59
48156;BME280;35568;48.104;11.782;2023-01-28T07:13:24;95870.12;;;1.00;47.45
48156;BME280;35568;48.104;11.782;2023-01-28T07:15:52;95874.04;;;1.00;47.78
48156;BME280;35568;48.104;11.782;2023-01-28T07:18:19;95870.41;;;1.12;47.33
48156;BME280;35568;48.104;11.782;2023-01-28T07:20:45;95868.23;;;0.74;47.25
48156;BME280;35568;48.104;11.782;2023-01-28T07:23:12;95872.96;;;1.16;47.46
48156;BME280;35568;48.104;11.782;2023-01-28T07:25:38;95873.47;;;1.04;47.06
48156;BME280;35568;48.104;11.782;2023-01-28T07:28:06;95883.23;;;0.75;47.29
48156;BME280;35568;48.104;11.782;2023-01-28T07:30:33;95885.44;;;1.05;47.46
48156;BME280;35568;48.104;11.782;2023-01-28T07:33:00;95888.19;;;0.87;47.42
48156;BME280;35568;48.104;11.782;2023-01-28T07:35:27;95888.90;;;1.02;47.33
48156;BME280;35568;48.104;11.782;2023-01-28T07:37:57;95891.04;;;1.04;47.17
48156;BME280;35568;48.104;11.782;2023-01-28T07:40:24;95891.67;;;1.04;47.07
48156;BME280;35568;48.104;11.782;2023-01-28T07:42:51;95890.69;;;1.11;46.88
48156;BME280;35568;48.104;11.782;2023-01-28T07:45:19;95894.40;;;1.42;46.56
48156;BME280;35568;48.104;11.782;2023-01-28T07:47:53;95894.02;;;1.37;46.96
48156;BME280;35568;48.104;11.782;2023-01-28T07:50:20;95895.69;;;1.29;46.84
48156;BME280;35568;48.104;11.782;2023-01-28T07:52:47;95902.27;;;1.56;46.36
48156;BME280;35568;48.104;11.782;2023-01-28T07:55:14;95908.41;;;1.29;46.93
48156;BME280;35568;48.104;11.782;2023-01-28T07:57:49;95910.64;;;0.87;46.99
48156;BME280;35568;48.104;11.782;2023-01-28T08:00:16;95916.15;;;0.75;47.15
48156;BME280;35568;48.104;11.782;2023-01-28T08:02:44;95919.49;;;0.50;48.30
48156;BME280;35568;48.104;11.782;2023-01-28T08:05:10;95922.28;;;0.48;48.68
48156;BME280;35568;48.104;11.782;2023-01-28T08:07:38;95926.29;;;0.58;48.31
48156;BME280;35568;48.104;11.782;2023-01-28T08:10:05;95930.26;;;0.79;48.21
48156;BME280;35568;48.104;11.782;2023-01-28T08:12:33;95931.49;;;0.51;48.38
48156;BME280;35568;48.104;11.782;2023-01-28T08:14:59;95931.08;;;0.41;48.43
48156;BME280;35568;48.104;11.782;2023-01-28T08:17:26;95934.33;;;0.50;48.50
48156;BME280;35568;48.104;11.782;2023-01-28T08:19:53;95935.41;;;0.70;48.25
48156;BME280;35568;48.104;11.782;2023-01-28T08:22:24;95938.81;;;0.63;48.97
48156;BME280;35568;48.104;11.782;2023-01-28T08:24:51;95942.26;;;1.04;48.42
48156;BME280;35568;48.104;11.782;2023-01-28T08:27:18;95945.71;;;1.15;48.09
48156;BME280;35568;48.104;11.782;2023-01-28T08:29:45;95948.30;;;1.38;47.70
48156;BME280;35568;48.104;11.782;2023-01-28T08:32:12;95952.74;;;1.46;47.31
48156;BME280;35568;48.104;11.782;2023-01-28T08:34:38;95952.27;;;1.14;47.11
48156;BME280;35568;48.104;11.782;2023-01-28T08:37:05;95953.25;;;0.87;47.34
48156;BME280;35568;48.104;11.782;2023-01-28T08:39:32;95952.20;;;1.11;47.55
48156;BME280;35568;48.104;11.782;2023-01-28T08:41:59;95953.93;;;1.04;47.86
48156;BME280;35568;48.104;11.782;2023-01-28T08:44:26;95953.71;;;1.28;47.72
48156;BME280;35568;48.104;11.782;2023-01-28T08:46:53;95956.55;;;1.53;47.15
48156;BME280;35568;48.104;11.782;2023-01-28T08:49:20;95954.24;;;1.72;46.74
48156;BME280;35568;48.104;11.782;2023-01-28T08:51:46;95952.53;;;1.56;46.96
48156;BME280;35568;48.104;11.782;2023-01-28T08:54:13;95947.00;;;1.86;46.36
48156;BME280;35568;48.104;11.782;2023-01-28T08:56:40;95950.19;;;1.53;46.61
48156;BME280;35568;48.104;11.782;2023-01-28T08:59:07;95953.78;;;1.84;45.98
48156;BME280;35568;48.104;11.782;2023-01-28T09:01:34;95951.65;;;2.02;46.46
48156;BME280;35568;48.104;11.782;2023-01-28T09:04:01;95954.85;;;2.19;46.12
48156;BME280;35568;48.104;11.782;2023-01-28T09:06:27;95958.33;;;2.34;46.01
48156;BME280;35568;48.104;11.782;2023-01-28T09:08:55;95959.39;;;1.59;46.07
48156;BME280;35568;48.104;11.782;2023-01-28T09:11:23;95961.07;;;2.15;45.83
48156;BME280;35568;48.104;11.782;2023-01-28T09:13:50;95967.38;;;2.37;45.63
48156;BME280;35568;48.104;11.782;2023-01-28T09:16:17;95967.05;;;1.83;45.53
48156;BME280;35568;48.104;11.782;2023-01-28T09:18:45;95966.73;;;2.11;45.59
48156;BME280;35568;48.104;11.782;2023-01-28T09:21:11;95971.02;;;1.85;45.76
48156;BME280;35568;48.104;11.782;2023-01-28T09:23:38;95970.24;;;2.32;45.60
48156;BME280;35568;48.104;11.782;2023-01-28T09:26:05;95969.68;;;2.02;45.48
48156;BME280;35568;48.104;11.782;2023-01-28T09:28:33;95964.50;;;1.91;45.48
48156;BME280;35568;48.104;11.782;2023-01-28T09:31:01;95964.66;;;2.03;44.78
48156;BME280;35568;48.104;11.782;2023-01-28T09:33:28;95966.07;;;2.30;44.55
48156;BME280;35568;48.104;11.782;2023-01-28T09:35:55;95966.49;;;2.64;44.49
48156;BME280;35568;48.104;11.782;2023-01-28T09:38:22;95962.77;;;2.75;44.41
48156;BME280;35568;48.104;11.782;2023-01-28T09:40:49;95965.03;;;2.72;44.10
48156;BME280;35568;48.104;11.782;2023-01-28T09:43:31;95959.25;;;3.05;44.01
48156;BME280;35568;48.104;11.782;2023-01-28T09:46:04;95961.15;;;3.33;43.64
48156;BME280;35568;48.104;11.782;2023-01-28T09:48:35;95961.10;;;3.11;43.30
48156;BME280;35568;48.104;11.782;2023-01-28T09:51:07;95957.23;;;3.00;43.55
48156;BME280;35568;48.104;11.782;2023-01-28T09:53:41;95955.40;;;3.07;43.05
48156;BME280;35568;48.104;11.782;2023-01-28T09:56:13;95957.28;;;3.26;42.81
48156;BME280;35568;48.104;11.782;2023-01-28T09:58:41;95957.83;;;3.69;42.45
48156;BME280;35568;48.104;11.782;2023-01-28T10:01:24;95959.17;;;3.68;42.17
48156;BME280;35568;48.104;11.782;2023-01-28T10:04:05;95956.88;;;3.47;42.49
48156;BME280;35568;48.104;11.782;2023-01-28T10:06:45;95957.49;;;3.82;42.38
48156;BME280;35568;48.104;11.782;2023-01-28T10:09:25;95956.82;;;3.87;42.18
48156;BME280;35568;48.104;11.782;2023-01-28T10:12:04;95951.16;;;4.00;41.69
48156;BME280;35568;48.104;11.782;2023-01-28T10:14:44;95950.78;;;3.64;41.67
48156;BME280;35568;48.104;11.782;2023-01-28T10:17:18;95951.22;;;3.74;41.78
48156;BME280;35568;48.104;11.782;2023-01-28T10:19:52;95948.92;;;3.53;42.12
48156;BME280;35568;48.104;11.782;2023-01-28T10:22:22;95947.84;;;3.54;41.69
48156;BME280;35568;48.104;11.782;2023-01-28T10:24:53;95943.98;;;3.98;41.72
48156;BME280;35568;48.104;11.782;2023-01-28T10:27:23;95943.80;;;4.12;41.32
48156;BME280;35568;48.104;11.782;2023-01-28T10:29:52;95944.10;;;4.23;40.97
48156;BME280;35568;48.104;11.782;2023-01-28T10:32:25;95948.57;;;4.29;40.28
48156;BME280;35568;48.104;11.782;2023-01-28T10:34:54;95949.67;;;4.48;40.26
48156;BME280;35568;48.104;11.782;2023-01-28T10:37:22;95949.66;;;4.32;40.48
48156;BME280;35568;48.104;11.782;2023-01-28T10:39:49;95953.64;;;3.59;41.06
48156;BME280;35568;48.104;11.782;2023-01-28T10:42:26;95953.23;;;3.61;41.49
48156;BME280;35568;48.104;11.782;2023-01-28T10:44:56;95952.91;;;3.46;41.48
48156;BME280;35568;48.104;11.782;2023-01-28T10:47:29;95950.34;;;3.17;41.66
48156;BME280;35568;48.104;11.782;2023-01-28T10:49:58;95946.38;;;3.71;42.23
48156;BME280;35568;48.104;11.782;2023-01-28T10:52:27;95946.57;;;3.46;42.49
48156;BME280;35568;48.104;11.782;2023-01-28T10:55:03;95946.34;;;3.71;42.01
48156;BME280;35568;48.104;11.782;2023-01-28T10:57:32;95942.78;;;4.05;41.19
48156;BME280;35568;48.104;11.782;2023-01-28T11:00:11;95947.35;;;3.87;41.41
48156;BME280;35568;48.104;11.782;2023-01-28T11:02:38;95945.50;;;3.45;41.24
48156;BME280;35568;48.104;11.782;2023-01-28T11:05:15;95941.52;;;3.60;41.85
48156;BME280;35568;48.104;11.782;2023-01-28T11:07:42;95940.67;;;3.68;41.34
48156;BME280;35568;48.104;11.782;2023-01-28T11:10:28;95941.13;;;3.81;41.55
48156;BME280;35568;48.104;11.782;2023-01-28T11:12:57;95943.84;;;4.57;40.22
48156;BME280;35568;48.104;11.782;2023-01-28T11:15:25;95945.30;;;4.66;40.21
48156;BME280;35568;48.104;11.782;2023-01-28T11:17:56;95940.13;;;4.30;40.27
48156;BME280;35568;48.104;11.782;2023-01-28T11:20:26;95936.43;;;4.09;40.19
48156;BME280;35568;48.104;11.782;2023-01-28T11:22:54;95940.43;;;3.78;40.77
48156;BME280;35568;48.104;11.782;2023-01-28T11:25:27;95942.08;;;3.93;40.94
48156;BME280;35568;48.104;11.782;2023-01-28T11:27:56;95944.60;;;4.23;40.66
48156;BME280;35568;48.104;11.782;2023-01-28T11:30:26;95943.96;;;4.17;40.84
48156;BME280;35568;48.104;11.782;2023-01-28T11:32:56;95948.15;;;4.84;40.01
48156;BME280;35568;48.104;11.782;2023-01-28T11:35:26;95950.51;;;4.73;40.12
48156;BME280;35568;48.104;11.782;2023-01-28T11:37:52;95948.63;;;4.47;39.45
48156;BME280;35568;48.104;11.782;2023-01-28T11:40:20;95948.43;;;3.87;40.43
48156;BME280;35568;48.104;11.782;2023-01-28T11:42:47;95949.00;;;3.70;41.11
48156;BME280;35568;48.104;11.782;2023-01-28T11:45:17;95949.65;;;3.47;41.31
48156;BME280;35568;48.104;11.782;2023-01-28T11:47:53;95952.72;;;2.79;42.27
48156;BME280;35568;48.104;11.782;2023-01-28T11:50:35;95951.70;;;2.78;42.23
48156;BME280;35568;48.104;11.782;2023-01-28T11:53:18;95949.13;;;3.06;42.06
48156;BME280;35568;48.104;11.782;2023-01-28T11:55:58;95946.44;;;3.08;41.90
48156;BME280;35568;48.104;11.782;2023-01-28T11:58:38;95945.30;;;2.75;41.98
48156;BME280;35568;48.104;11.782;2023-01-28T12:01:15;95938.59;;;3.12;42.42
48156;BME280;35568;48.104;11.782;2023-01-28T12:04:01;95939.35;;;3.11;42.83
48156;BME280;35568;48.104;11.782;2023-01-28T12:06:41;95936.42;;;3.52;42.63
48156;BME280;35568;48.104;11.782;2023-01-28T12:09:19;95938.72;;;3.31;42.10
48156;BME280;35568;48.104;11.782;2023-01-28T12:12:02;95940.93;;;3.17;42.33
48156;BME280;35568;48.104;11.782;2023-01-28T12:14:41;95943.42;;;3.86;41.91
48156;BME280;35568;48.104;11.782;2023-01-28T12:17:20;95944.46;;;3.45;41.58
48156;BME280;35568;48.104;11.782;2023-01-28T12:20:01;95945.08;;;3.43;41.84
48156;BME280;35568;48.104;11.782;2023-01-28T12:22:41;95943.43;;;3.37;42.11
48156;BME280;35568;48.104;11.782;2023-01-28T12:25:20;95942.94;;;2.98;42.94
48156;BME280;35568;48.104;11.782;2023-01-28T12:27:54;95945.24;;;3.68;42.20
48156;BME280;35568;48.104;11.782;2023-01-28T12:30:33;95944.76;;;3.38;42.05
48156;BME280;35568;48.104;11.782;2023-01-28T12:33:32;95945.07;;;4.01;41.36
48156;BME280;35568;48.104;11.782;2023-01-28T12:36:15;95940.90;;;4.33;40.01
48156;BME280;35568;48.104;11.782;2023-01-28T12:38:56;95941.78;;;4.15;39.64
48156;BME280;35568;48.104;11.782;2023-01-28T12:41:30;95945.77;;;3.77;40.27
48156;BME280;35568;48.104;11.782;2023-01-28T12:44:01;95943.06;;;3.58;40.77
48156;BME280;35568;48.104;11.782;2023-01-28T12:46:36;95944.62;;;3.31;41.29
48156;BME280;35568;48.104;11.782;2023-01-28T12:49:07;95947.12;;;3.60;41.53
48156;BME280;35568;48.104;11.782;2023-01-28T12:51:46;95947.80;;;3.51;40.88
48156;BME280;35568;48.104;11.782;2023-01-28T12:54:18;95944.14;;;3.99;41.01
48156;BME280;35568;48.104;11.782;2023-01-28T12:56:50;95943.30;;;3.95;40.71
48156;BME280;35568;48.104;11.782;2023-01-28T12:59:24;95944.85;;;4.21;40.38
48156;BME280;35568;48.104;11.782;2023-01-28T13:02:00;95945.38;;;4.52;40.11
48156;BME280;35568;48.104;11.782;2023-01-28T13:04:35;95946.89;;;3.93;40.15
48156;BME280;35568;48.104;11.782;2023-01-28T13:07:08;95946.45;;;3.59;40.87
48156;BME280;35568;48.104;11.782;2023-01-28T13:09:44;95946.70;;;3.66;41.91
48156;BME280;35568;48.104;11.782;2023-01-28T13:12:12;95943.78;;;3.82;41.57
48156;BME280;35568;48.104;11.782;2023-01-28T13:14:40;95947.78;;;4.00;40.89
48156;BME280;35568;48.104;11.782;2023-01-28T13:17:09;95945.81;;;3.93;41.03